<?xml version="1.0" encoding="UTF-8" standalone="no" ?>
<gpx xmlns="http://www.topografix.com/GPX/1/1" xmlns:xsi="http://www.w3.org/2001/XMLSchema-instance" xsi:schemaLocation="http://www.topografix.com/GPX/1/1 http://www.topografix.com/GPX/1/1/gpx.xsd" version="1.1" creator="VisuGPX - https://www.visugpx.com">
  <metadata>
    <name>Beaucouzé - CAP 10km</name>
    <desc><![CDATA[Départ hotel b&b, un peu de route pour le transfert puis très beau chemin dans les bois. Sympa.]]></desc>
  </metadata>
  <trk>
    <name><![CDATA[Sequence 5]]></name>
    <trkseg>
      <trkpt lat="47.46688" lon="-0.63598">
        <ele>76</ele>
        <time>2015-08-25T18:39:25Z</time>
      </trkpt>
      <trkpt lat="47.46692" lon="-0.63588">
        <ele>76</ele>
        <time>2015-08-25T18:39:31Z</time>
      </trkpt>
      <trkpt lat="47.46692" lon="-0.63574">
        <ele>76</ele>
        <time>2015-08-25T18:39:37Z</time>
      </trkpt>
      <trkpt lat="47.46693" lon="-0.63557">
        <ele>75</ele>
        <time>2015-08-25T18:39:43Z</time>
      </trkpt>
      <trkpt lat="47.46684" lon="-0.63534">
        <ele>75</ele>
        <time>2015-08-25T18:39:49Z</time>
      </trkpt>
      <trkpt lat="47.46666" lon="-0.63506">
        <ele>75</ele>
        <time>2015-08-25T18:39:57Z</time>
      </trkpt>
      <trkpt lat="47.46655" lon="-0.63488">
        <ele>75</ele>
        <time>2015-08-25T18:40:02Z</time>
      </trkpt>
      <trkpt lat="47.46648" lon="-0.63472">
        <ele>75</ele>
        <time>2015-08-25T18:40:07Z</time>
      </trkpt>
      <trkpt lat="47.46655" lon="-0.63428">
        <ele>75</ele>
        <time>2015-08-25T18:40:18Z</time>
      </trkpt>
      <trkpt lat="47.46656" lon="-0.63424">
        <ele>75</ele>
        <time>2015-08-25T18:40:19Z</time>
      </trkpt>
      <trkpt lat="47.46659" lon="-0.63396">
        <ele>74</ele>
        <time>2015-08-25T18:40:25Z</time>
      </trkpt>
      <trkpt lat="47.46661" lon="-0.63369">
        <ele>74</ele>
        <time>2015-08-25T18:40:32Z</time>
      </trkpt>
      <trkpt lat="47.46653" lon="-0.63328">
        <ele>74</ele>
        <time>2015-08-25T18:40:42Z</time>
      </trkpt>
      <trkpt lat="47.46636" lon="-0.63315">
        <ele>74</ele>
        <time>2015-08-25T18:40:48Z</time>
      </trkpt>
      <trkpt lat="47.46621" lon="-0.63314">
        <ele>74</ele>
        <time>2015-08-25T18:40:54Z</time>
      </trkpt>
      <trkpt lat="47.46619" lon="-0.63314">
        <ele>74</ele>
        <time>2015-08-25T18:40:55Z</time>
      </trkpt>
      <trkpt lat="47.46599" lon="-0.63312">
        <ele>75</ele>
        <time>2015-08-25T18:41:01Z</time>
      </trkpt>
      <trkpt lat="47.46589" lon="-0.63288">
        <ele>75</ele>
        <time>2015-08-25T18:41:09Z</time>
      </trkpt>
      <trkpt lat="47.46587" lon="-0.6327">
        <ele>75</ele>
        <time>2015-08-25T18:41:15Z</time>
      </trkpt>
      <trkpt lat="47.46591" lon="-0.63253">
        <ele>75</ele>
        <time>2015-08-25T18:41:20Z</time>
      </trkpt>
      <trkpt lat="47.46598" lon="-0.63238">
        <ele>74</ele>
        <time>2015-08-25T18:41:25Z</time>
      </trkpt>
      <trkpt lat="47.46608" lon="-0.63204">
        <ele>74</ele>
        <time>2015-08-25T18:41:34Z</time>
      </trkpt>
      <trkpt lat="47.4661" lon="-0.63193">
        <ele>74</ele>
        <time>2015-08-25T18:41:36Z</time>
      </trkpt>
      <trkpt lat="47.46616" lon="-0.6316">
        <ele>73</ele>
        <time>2015-08-25T18:41:46Z</time>
      </trkpt>
      <trkpt lat="47.46618" lon="-0.63154">
        <ele>73</ele>
        <time>2015-08-25T18:41:49Z</time>
      </trkpt>
      <trkpt lat="47.46624" lon="-0.63129">
        <ele>73</ele>
        <time>2015-08-25T18:41:55Z</time>
      </trkpt>
      <trkpt lat="47.46635" lon="-0.63099">
        <ele>73</ele>
        <time>2015-08-25T18:42:04Z</time>
      </trkpt>
      <trkpt lat="47.46638" lon="-0.63089">
        <ele>72</ele>
        <time>2015-08-25T18:42:07Z</time>
      </trkpt>
      <trkpt lat="47.46643" lon="-0.63071">
        <ele>72</ele>
        <time>2015-08-25T18:42:12Z</time>
      </trkpt>
      <trkpt lat="47.46653" lon="-0.63047">
        <ele>72</ele>
        <time>2015-08-25T18:42:19Z</time>
      </trkpt>
      <trkpt lat="47.46659" lon="-0.63025">
        <ele>72</ele>
        <time>2015-08-25T18:42:25Z</time>
      </trkpt>
      <trkpt lat="47.46661" lon="-0.63011">
        <ele>71</ele>
        <time>2015-08-25T18:42:31Z</time>
      </trkpt>
      <trkpt lat="47.46668" lon="-0.62988">
        <ele>71</ele>
        <time>2015-08-25T18:42:37Z</time>
      </trkpt>
      <trkpt lat="47.46676" lon="-0.62967">
        <ele>71</ele>
        <time>2015-08-25T18:42:46Z</time>
      </trkpt>
      <trkpt lat="47.4668" lon="-0.62958">
        <ele>71</ele>
        <time>2015-08-25T18:42:51Z</time>
      </trkpt>
    </trkseg>
  </trk>
</gpx>